Time;durP1;ratioP1;P1;durP2;ratioP2;P2;SDS_P1;SDS_P2;PMS_P1;PMS_P2;Temp;Humidity;BMP_temperature;BMP_pressure;BME280_temperature;BME280_humidity;BME280_pressure;Samples;Min_cycle;Max_cycle;Signal;HPM_P1;HPM_P2
2022/02/04 00:23:30;;;;;;;4.50;4.20;;;;;;;;;;4782932;30;20051;-78
2022/02/04 00:26:09;;;;;;;6.03;5.35;;;;;;;;;;4783524;29;20063;-78
2022/02/04 00:28:57;;;;;;;4.45;4.10;;;;;;;;;;4782008;29;20878;-78
2022/02/04 00:31:34;;;;;;;7.47;6.07;;;;;;;;;;4782964;29;20059;-78
2022/02/04 00:34:07;;;;;;;5.78;5.13;;;;;;;;;;4783478;30;20070;-78
2022/02/04 00:39:12;;;;;;;6.03;4.85;;;;;;;;;;4782166;29;20490;-78
2022/02/04 00:41:42;;;;;;;5.90;4.22;;;;;;;;;;4797031;29;20058;-78
2022/02/04 00:44:19;;;;;;;5.93;5.20;;;;;;;;;;4780681;29;20063;-78
2022/02/04 00:49:38;;;;;;;;;;;;;;;;;;4783265;30;20700;-78
2022/02/04 00:52:17;;;;;;;7.47;5.10;;;;;;;;;;4782131;29;20692;-78
2022/02/04 01:27:59;;;;;;;2.65;2.45;;;;;;;;;;4799335;29;20564;-78
2022/02/04 01:30:32;;;;;;;1.70;1.60;;;;;;;;;;4800112;29;20197;-78
2022/02/04 01:33:01;;;;;;;2.47;1.88;;;;;;;;;;4799824;29;20055;-79
2022/02/04 01:35:29;;;;;;;3.22;2.70;;;;;;;;;;4799761;29;20058;-79
2022/02/04 01:37:57;;;;;;;2.15;1.88;;;;;;;;;;4800208;29;20062;-79
2022/02/04 01:40:25;;;;;;;2.25;1.77;;;;;;;;;;4799597;29;20050;-78
2022/02/04 01:42:53;;;;;;;1.85;1.73;;;;;;;;;;4799501;29;20051;-79
2022/02/04 01:45:21;;;;;;;1.80;1.52;;;;;;;;;;4799737;29;20059;-79
2022/02/04 01:47:56;;;;;;;2.72;2.20;;;;;;;;;;4798943;29;20050;-78
2022/02/04 01:50:25;;;;;;;3.03;2.75;;;;;;;;;;4764317;30;20056;-79
2022/02/04 01:52:54;;;;;;;2.20;2.10;;;;;;;;;;4760641;30;20737;-79
2022/02/04 01:55:24;;;;;;;3.25;3.05;;;;;;;;;;4781254;30;20058;-79
2022/02/04 01:57:53;;;;;;;1.95;1.70;;;;;;;;;;4780089;30;20059;-79
2022/02/04 02:00:21;;;;;;;1.63;1.52;;;;;;;;;;4780664;29;20055;-79
2022/02/04 02:02:51;;;;;;;1.77;1.67;;;;;;;;;;4781479;30;20055;-79
2022/02/04 02:05:19;;;;;;;1.92;1.83;;;;;;;;;;4782169;30;20059;-79
2022/02/04 02:07:48;;;;;;;1.73;1.63;;;;;;;;;;4781127;30;20063;-79
2022/02/04 02:10:19;;;;;;;1.80;1.70;;;;;;;;;;4781787;30;20077;-78
2022/02/04 02:13:05;;;;;;;1.73;1.63;;;;;;;;;;4781277;30;20059;-79
2022/02/04 02:43:21;;;;;;;2.03;1.92;;;;;;;;;;4762548;30;20063;-79
2022/02/04 02:49:08;;;;;;;2.60;2.25;;;;;;;;;;4767163;29;20056;-79
2022/02/04 02:52:29;;;;;;;4.18;3.75;;;;;;;;;;4780964;30;20063;-79
2022/02/04 02:57:37;;;;;;;3.13;2.92;;;;;;;;;;4779189;29;20516;-79
2022/02/04 03:00:08;;;;;;;3.20;2.85;;;;;;;;;;4779720;29;20051;-79
2022/02/04 03:02:37;;;;;;;7.80;4.60;;;;;;;;;;4764797;30;20055;-79
2022/02/04 03:05:06;;;;;;;4.50;4.20;;;;;;;;;;4782547;29;20048;-79
2022/02/04 03:07:34;;;;;;;4.80;4.30;;;;;;;;;;4786749;29;20512;-79
2022/02/04 03:10:02;;;;;;;5.45;4.63;;;;;;;;;;4780871;30;20075;-79
2022/02/04 03:12:33;;;;;;;6.05;4.20;;;;;;;;;;4780634;29;20055;-79
2022/02/04 03:15:03;;;;;;;4.90;3.70;;;;;;;;;;4780078;29;20063;-79
2022/02/04 03:17:35;;;;;;;3.63;3.30;;;;;;;;;;4784271;30;20063;-79
2022/02/04 03:20:08;;;;;;;5.00;4.57;;;;;;;;;;4783917;29;20058;-79
2022/02/04 03:22:36;;;;;;;4.18;3.88;;;;;;;;;;4784457;30;20047;-79
2022/02/04 03:25:08;;;;;;;4.22;3.83;;;;;;;;;;4783184;29;20059;-79
2022/02/04 03:27:49;;;;;;;4.15;3.85;;;;;;;;;;4783853;29;20059;-79
2022/02/04 03:30:29;;;;;;;4.50;4.10;;;;;;;;;;4783593;29;20051;-79
2022/02/04 03:33:02;;;;;;;3.92;3.53;;;;;;;;;;4783788;29;20059;-79
2022/02/04 03:35:31;;;;;;;5.07;3.95;;;;;;;;;;4783750;29;20067;-79
2022/02/04 03:37:59;;;;;;;8.82;5.00;;;;;;;;;;4782334;30;20055;-79
2022/02/04 03:40:28;;;;;;;7.10;4.88;;;;;;;;;;4783264;29;20063;-79
2022/02/04 03:42:56;;;;;;;6.75;4.32;;;;;;;;;;4783544;29;20051;-79
2022/02/04 03:45:24;;;;;;;5.22;4.70;;;;;;;;;;4783407;30;20404;-79
2022/02/04 03:47:52;;;;;;;4.20;3.80;;;;;;;;;;4782881;29;20047;-79
2022/02/04 03:50:20;;;;;;;4.53;4.13;;;;;;;;;;4783933;30;20070;-79
2022/02/04 03:52:48;;;;;;;4.10;3.80;;;;;;;;;;4783248;29;20078;-79
2022/02/04 03:55:17;;;;;;;4.32;3.92;;;;;;;;;;4783315;29;20051;-79
2022/02/04 03:57:45;;;;;;;3.25;2.95;;;;;;;;;;4783382;30;20070;-79
2022/02/04 04:00:14;;;;;;;6.07;5.53;;;;;;;;;;4787388;29;20093;-78
2022/02/04 04:02:42;;;;;;;4.63;4.22;;;;;;;;;;4787032;29;20418;-78
2022/02/04 04:05:12;;;;;;;7.03;5.28;;;;;;;;;;4801022;29;20061;-78
2022/02/04 04:07:46;;;;;;;13.40;6.35;;;;;;;;;;4796749;29;20107;-78
2022/02/04 04:10:21;;;;;;;8.32;4.38;;;;;;;;;;4781800;30;20059;-78
2022/02/04 04:12:49;;;;;;;8.95;5.82;;;;;;;;;;4783252;29;20058;-78
2022/02/04 04:15:18;;;;;;;4.60;4.22;;;;;;;;;;4782422;29;20072;-78
2022/02/04 04:17:51;;;;;;;5.65;5.00;;;;;;;;;;4784530;29;20051;-78
2022/02/04 04:20:20;;;;;;;5.85;4.90;;;;;;;;;;4782882;29;20854;-78
2022/02/04 04:22:49;;;;;;;6.93;5.45;;;;;;;;;;4782995;29;20055;-78
2022/02/04 04:25:17;;;;;;;6.80;4.18;;;;;;;;;;4787564;29;20070;-78
2022/02/04 04:27:47;;;;;;;6.43;4.78;;;;;;;;;;4783893;29;20503;-78
2022/02/04 04:30:16;;;;;;;7.85;5.47;;;;;;;;;;4795024;29;20047;-78
2022/02/04 04:32:45;;;;;;;5.43;4.93;;;;;;;;;;4781218;30;20051;-78
2022/02/04 04:35:15;;;;;;;6.53;5.88;;;;;;;;;;4782595;30;20423;-78
2022/02/04 04:37:52;;;;;;;8.05;7.10;;;;;;;;;;4782987;30;20062;-78
2022/02/04 04:46:36;;;;;;;6.80;6.22;;;;;;;;;;4783059;30;19956;-78
2022/02/04 05:30:56;;;;;;;6.32;4.65;;;;;;;;;;4747473;30;20055;-82
2022/02/04 05:33:25;;;;;;;6.20;4.65;;;;;;;;;;4765066;30;20040;-82
2022/02/04 05:35:53;;;;;;;6.25;5.63;;;;;;;;;;4748047;30;20062;-81
2022/02/04 05:38:22;;;;;;;7.35;5.68;;;;;;;;;;4762540;30;20060;-82
2022/02/04 05:40:52;;;;;;;5.82;5.30;;;;;;;;;;4778952;29;20059;-82
2022/02/04 05:43:24;;;;;;;9.80;5.53;;;;;;;;;;4781199;29;20051;-81
2022/02/04 05:45:59;;;;;;;7.13;5.18;;;;;;;;;;4782146;30;20063;-81
2022/02/04 05:48:29;;;;;;;4.65;4.25;;;;;;;;;;4781635;29;20066;-81
2022/02/04 05:51:14;;;;;;;6.40;5.40;;;;;;;;;;4781863;29;20066;-82
2022/02/04 05:53:54;;;;;;;6.22;5.50;;;;;;;;;;4782108;30;20055;-81
2022/02/04 06:04:39;;;;;;;7.07;6.25;;;;;;;;;;4781555;29;20432;-82
2022/02/04 06:07:09;;;;;;;8.80;5.95;;;;;;;;;;4781852;29;20043;-82
2022/02/04 06:23:30;;;;;;;10.70;6.45;;;;;;;;;;4780903;29;20150;-78
2022/02/04 06:26:04;;;;;;;9.45;5.65;;;;;;;;;;4781336;30;20061;-77
2022/02/04 06:28:32;;;;;;;10.02;6.22;;;;;;;;;;4779737;30;20059;-78
2022/02/04 06:31:00;;;;;;;6.05;5.55;;;;;;;;;;4780824;29;20411;-78
2022/02/04 06:33:29;;;;;;;7.35;5.65;;;;;;;;;;4781141;30;20059;-78
2022/02/04 06:35:57;;;;;;;5.85;4.97;;;;;;;;;;4780957;29;20059;-78
2022/02/04 06:38:26;;;;;;;5.88;5.28;;;;;;;;;;4781165;30;20067;-77
2022/02/04 06:40:54;;;;;;;7.18;6.65;;;;;;;;;;4780991;29;20066;-78
2022/02/04 06:43:22;;;;;;;8.77;6.43;;;;;;;;;;4780254;29;20066;-78
2022/02/04 06:45:51;;;;;;;9.18;7.78;;;;;;;;;;4780927;30;20062;-78
2022/02/04 06:48:23;;;;;;;11.68;8.45;;;;;;;;;;4780689;29;20047;-78
2022/02/04 06:50:51;;;;;;;8.27;7.22;;;;;;;;;;4783796;29;20070;-78
2022/02/04 06:53:20;;;;;;;13.57;8.55;;;;;;;;;;4784607;30;20361;-78
2022/02/04 06:55:50;;;;;;;8.52;7.13;;;;;;;;;;4783020;29;20599;-77
2022/02/04 06:58:18;;;;;;;11.05;7.32;;;;;;;;;;4783724;30;20067;-77
2022/02/04 07:00:46;;;;;;;7.78;6.50;;;;;;;;;;4783137;29;20055;-77
2022/02/04 07:03:15;;;;;;;7.47;6.72;;;;;;;;;;4784155;29;20047;-77
2022/02/04 07:05:54;;;;;;;11.20;7.00;;;;;;;;;;4784579;30;20074;-78
2022/02/04 07:08:59;;;;;;;8.95;7.82;;;;;;;;;;4773816;29;20052;-77
2022/02/04 07:19:49;;;;;;;7.15;6.45;;;;;;;;;;4775973;29;20106;-78
2022/02/04 07:22:20;;;;;;;9.80;8.00;;;;;;;;;;4777245;30;20056;-78
2022/02/04 07:24:50;;;;;;;12.65;7.25;;;;;;;;;;4784616;29;20062;-77
2022/02/04 07:27:20;;;;;;;10.80;7.85;;;;;;;;;;4799197;29;20063;-78
2022/02/04 07:29:54;;;;;;;9.48;6.40;;;;;;;;;;4785761;29;20399;-78
2022/02/04 07:32:38;;;;;;;8.45;6.68;;;;;;;;;;4783482;30;20055;-81
2022/02/04 07:35:21;;;;;;;8.45;6.95;;;;;;;;;;4784040;29;20059;-81
2022/02/04 07:40:53;;;;;;;7.80;7.05;;;;;;;;;;4782594;29;20507;-81
2022/02/04 07:43:27;;;;;;;10.07;8.30;;;;;;;;;;4781968;29;20738;-82
2022/02/04 07:45:55;;;;;;;10.98;6.95;;;;;;;;;;4783932;30;20063;-82
2022/02/04 07:48:24;;;;;;;10.07;6.85;;;;;;;;;;4783264;29;20055;-81
2022/02/04 07:50:52;;;;;;;7.50;6.65;;;;;;;;;;4783811;30;20055;-81
2022/02/04 07:53:24;;;;;;;9.88;7.85;;;;;;;;;;4783827;30;20055;-81
2022/02/04 07:55:52;;;;;;;10.55;7.68;;;;;;;;;;4783477;29;20051;-82
2022/02/04 07:58:21;;;;;;;11.15;8.38;;;;;;;;;;4766576;30;20066;-81
2022/02/04 08:00:50;;;;;;;8.48;7.63;;;;;;;;;;4766495;29;20687;-81
2022/02/04 08:03:37;;;;;;;14.10;9.07;;;;;;;;;;4783529;30;20893;-81
2022/02/04 08:06:10;;;;;;;35.05;9.50;;;;;;;;;;4783772;30;20710;-81
2022/02/04 08:09:01;;;;;;;17.05;8.00;;;;;;;;;;4782667;29;20055;-81
2022/02/04 08:12:00;;;;;;;14.30;8.88;;;;;;;;;;4766678;30;20066;-81
2022/02/04 08:20:18;;;;;;;7.65;6.43;;;;;;;;;;4766678;30;20063;-81
2022/02/04 08:31:28;;;;;;;10.63;7.75;;;;;;;;;;4782878;29;20510;-81
2022/02/04 08:55:03;;;;;;;10.68;8.18;;;;;;;;;;4780709;29;20077;-81
2022/02/04 09:02:41;;;;;;;10.25;6.85;;;;;;;;;;4781267;30;20075;-81
2022/02/04 09:05:16;;;;;;;13.32;10.02;;;;;;;;;;4765876;30;20464;-81
2022/02/04 09:08:15;;;;;;;11.82;7.65;;;;;;;;;;4766065;30;21712;-81
2022/02/04 09:10:42;;;;;;;10.77;9.52;;;;;;;;;;4783096;29;20066;-81
2022/02/04 09:18:37;;;;;;;10.73;7.00;;;;;;;;;;4782084;30;20522;-81
2022/02/04 09:23:36;;;;;;;12.93;9.35;;;;;;;;;;4765663;30;20051;-81
2022/02/04 09:26:06;;;;;;;8.98;6.30;;;;;;;;;;4780518;29;20063;-82
2022/02/04 09:28:35;;;;;;;14.33;11.40;;;;;;;;;;4751190;30;20059;-80
2022/02/04 09:31:04;;;;;;;15.60;12.45;;;;;;;;;;4766187;29;20309;-79
2022/02/04 09:33:32;;;;;;;10.35;7.78;;;;;;;;;;4780421;29;20062;-77
2022/02/04 09:36:03;;;;;;;8.00;6.28;;;;;;;;;;4797626;29;20051;-82
2022/02/04 09:38:34;;;;;;;10.88;7.57;;;;;;;;;;4788072;29;20047;-83
2022/02/04 09:41:04;;;;;;;14.52;9.55;;;;;;;;;;4759474;30;20510;-80
2022/02/04 09:43:34;;;;;;;11.43;8.10;;;;;;;;;;4775729;29;20058;-84
2022/02/04 09:46:02;;;;;;;10.30;7.70;;;;;;;;;;4783637;30;20059;-83
2022/02/04 09:48:30;;;;;;;10.98;8.30;;;;;;;;;;4785229;29;20061;-83
2022/02/04 09:51:00;;;;;;;10.00;7.95;;;;;;;;;;4783790;29;20043;-84
2022/02/04 10:13:17;;;;;;;8.43;6.50;;;;;;;;;;4802340;29;20059;-81
2022/02/04 10:16:15;;;;;;;10.23;7.53;;;;;;;;;;4784333;29;20431;-81
2022/02/04 10:18:51;;;;;;;10.23;6.78;;;;;;;;;;4781226;29;20059;-79
2022/02/04 10:21:19;;;;;;;11.63;7.30;;;;;;;;;;4782754;29;20059;-80
2022/02/04 10:23:48;;;;;;;11.48;7.22;;;;;;;;;;4781599;29;20500;-80
2022/02/04 10:26:18;;;;;;;9.25;7.95;;;;;;;;;;4786926;29;20051;-83
2022/02/04 10:28:47;;;;;;;7.32;6.70;;;;;;;;;;4769515;30;20078;-83
2022/02/04 10:31:20;;;;;;;7.97;7.25;;;;;;;;;;4767125;29;20066;-82
2022/02/04 10:34:11;;;;;;;10.55;7.95;;;;;;;;;;4764856;30;20068;-81
2022/02/04 10:40:01;;;;;;;7.60;6.32;;;;;;;;;;4794316;29;20055;-81
2022/02/04 10:59:42;;;;;;;7.65;6.07;;;;;;;;;;4706614;30;20543;-79
2022/02/04 11:02:34;;;;;;;6.03;5.43;;;;;;;;;;4781445;29;20106;-83
2022/02/04 11:05:28;;;;;;;6.22;5.35;;;;;;;;;;4780581;29;20064;-82
2022/02/04 11:35:58;;;;;;;8.52;5.43;;;;;;;;;;4757926;29;20056;-81
2022/02/04 11:47:54;;;;;;;8.57;5.40;;;;;;;;;;4765243;30;20051;-81
2022/02/04 11:55:11;;;;;;;4.53;3.83;;;;;;;;;;4782533;30;20043;-81
2022/02/04 11:58:00;;;;;;;6.88;4.72;;;;;;;;;;4772235;30;20054;-83
2022/02/04 12:00:31;;;;;;;9.43;5.05;;;;;;;;;;4768772;29;20054;-85
2022/02/04 12:02:59;;;;;;;5.13;4.63;;;;;;;;;;4785352;30;20056;-81
2022/02/04 12:05:28;;;;;;;5.97;4.25;;;;;;;;;;4783306;30;20119;-83
2022/02/04 12:08:15;;;;;;;11.05;7.88;;;;;;;;;;4768339;29;20071;-83
2022/02/04 12:10:50;;;;;;;7.10;6.20;;;;;;;;;;4784966;30;20055;-83
2022/02/04 12:13:31;;;;;;;5.28;4.80;;;;;;;;;;4770331;30;20826;-85
2022/02/04 12:16:33;;;;;;;7.55;5.82;;;;;;;;;;4760130;30;20048;-85
2022/02/04 12:19:08;;;;;;;7.30;6.38;;;;;;;;;;4785885;29;20059;-89
2022/02/04 12:21:45;;;;;;;6.45;5.68;;;;;;;;;;4784533;30;20055;-86
2022/02/04 12:24:36;;;;;;;8.73;5.72;;;;;;;;;;4766585;30;20047;-86
2022/02/04 12:27:47;;;;;;;7.45;4.97;;;;;;;;;;4772906;29;20067;-86
2022/02/04 12:30:42;;;;;;;6.70;6.05;;;;;;;;;;4766740;30;20056;-86
2022/02/04 12:33:16;;;;;;;9.82;7.57;;;;;;;;;;4769367;30;20047;-85
2022/02/04 12:35:49;;;;;;;4.97;4.45;;;;;;;;;;4768345;30;20055;-86
2022/02/04 12:38:18;;;;;;;9.48;6.28;;;;;;;;;;4770018;30;20051;-86
2022/02/04 12:40:56;;;;;;;6.32;4.45;;;;;;;;;;4754869;30;20060;-85
2022/02/04 12:43:25;;;;;;;6.93;6.05;;;;;;;;;;4753261;30;20129;-85
2022/02/04 12:45:53;;;;;;;7.10;4.80;;;;;;;;;;4753873;30;20379;-85
2022/02/04 12:48:22;;;;;;;15.70;6.85;;;;;;;;;;4740481;30;20052;-84
2022/02/04 12:50:54;;;;;;;7.07;6.10;;;;;;;;;;4757711;30;20055;-84
2022/02/04 12:53:23;;;;;;;7.15;5.68;;;;;;;;;;4750046;30;20052;-84
2022/02/04 12:56:13;;;;;;;8.30;5.57;;;;;;;;;;4766975;30;20048;-85
2022/02/04 12:58:56;;;;;;;7.93;7.10;;;;;;;;;;4765220;30;20052;-83
2022/02/04 13:10:20;;;;;;;8.90;6.38;;;;;;;;;;4760703;30;20094;-83
2022/02/04 13:12:50;;;;;;;6.47;5.90;;;;;;;;;;4775363;30;20051;-84
2022/02/04 13:15:23;;;;;;;5.93;4.15;;;;;;;;;;4781947;29;20423;-83
2022/02/04 13:17:52;;;;;;;7.07;5.10;;;;;;;;;;4784362;30;20530;-85
2022/02/04 13:20:21;;;;;;;7.00;6.40;;;;;;;;;;4784171;29;20068;-85
2022/02/04 13:22:52;;;;;;;4.55;3.75;;;;;;;;;;4784886;30;20062;-85
2022/02/04 13:25:21;;;;;;;7.15;5.10;;;;;;;;;;4783549;29;20056;-85
2022/02/04 13:32:31;;;;;;;6.18;5.18;;;;;;;;;;4767665;30;20039;-84
2022/02/04 13:34:59;;;;;;;7.60;6.70;;;;;;;;;;4767465;29;20055;-86
2022/02/04 13:37:31;;;;;;;5.93;4.70;;;;;;;;;;4784293;30;20408;-85
2022/02/04 13:40:16;;;;;;;8.15;5.97;;;;;;;;;;4782673;29;20397;-85
2022/02/04 13:43:20;;;;;;;7.05;4.65;;;;;;;;;;4778725;29;20063;-84
2022/02/04 13:46:19;;;;;;;6.80;5.88;;;;;;;;;;4767995;30;20062;-84
2022/02/04 13:50:09;;;;;;;5.90;5.15;;;;;;;;;;4724370;30;20067;-88
2022/02/04 13:52:22;;;;;;;9.07;8.13;;;;;;;;;;4746752;30;20504;-85
2022/02/04 13:57:44;;;;;;;6.05;4.68;;;;;;;;;;4764455;30;20059;-86
2022/02/04 14:02:57;;;;;;;8.90;4.93;;;;;;;;;;4781966;29;20059;-84
2022/02/04 14:05:42;;;;;;;7.13;6.43;;;;;;;;;;4783558;30;20059;-84
2022/02/04 14:08:18;;;;;;;6.90;6.25;;;;;;;;;;4768774;30;20062;-85
2022/02/04 14:10:55;;;;;;;6.40;3.78;;;;;;;;;;4766374;30;20422;-84
2022/02/04 14:13:24;;;;;;;6.53;5.15;;;;;;;;;;4767062;30;20056;-85
2022/02/04 14:15:55;;;;;;;5.38;4.85;;;;;;;;;;4766114;29;20129;-85
2022/02/04 14:18:41;;;;;;;7.03;5.38;;;;;;;;;;4768116;30;20055;-85
2022/02/04 14:21:11;;;;;;;9.43;7.85;;;;;;;;;;4769417;30;20051;-85
2022/02/04 14:23:40;;;;;;;5.68;5.18;;;;;;;;;;4768481;29;20055;-85
2022/02/04 14:26:18;;;;;;;7.90;5.95;;;;;;;;;;4791128;29;20055;-85
2022/02/04 14:29:17;;;;;;;5.97;4.25;;;;;;;;;;4805246;29;20047;-84
2022/02/04 14:31:54;;;;;;;7.50;5.60;;;;;;;;;;4787667;29;20059;-84
2022/02/04 14:37:43;;;;;;;3.88;2.90;;;;;;;;;;4787459;29;20055;-84
2022/02/04 14:52:39;;;;;;;6.68;5.70;;;;;;;;;;4772752;29;20054;-81
2022/02/04 15:07:11;;;;;;;12.85;5.70;;;;;;;;;;4790484;29;20113;-81
2022/02/04 15:10:35;;;;;;;14.90;6.70;;;;;;;;;;4712071;30;20524;-81
2022/02/04 15:13:24;;;;;;;6.35;5.68;;;;;;;;;;4745298;30;20198;-81
2022/02/04 15:16:06;;;;;;;6.45;4.38;;;;;;;;;;4734066;30;20044;-81
2022/02/04 15:18:50;;;;;;;6.03;5.13;;;;;;;;;;4740591;30;20534;-82
2022/02/04 15:21:35;;;;;;;7.57;5.90;;;;;;;;;;4752603;30;20840;-81
2022/02/04 15:24:19;;;;;;;5.05;3.83;;;;;;;;;;4765998;30;20043;-81
2022/02/04 15:26:54;;;;;;;5.90;4.25;;;;;;;;;;4780062;29;20062;-81
2022/02/04 15:29:26;;;;;;;8.25;6.13;;;;;;;;;;4780763;30;20089;-82
2022/02/04 15:31:57;;;;;;;14.25;4.88;;;;;;;;;;4780647;29;20051;-81
2022/02/04 15:34:26;;;;;;;6.68;5.78;;;;;;;;;;4781242;30;20143;-81
2022/02/04 15:37:13;;;;;;;6.43;4.45;;;;;;;;;;4776933;29;20043;-84
2022/02/04 15:39:41;;;;;;;7.40;4.72;;;;;;;;;;4798474;29;20051;-80
2022/02/04 15:42:18;;;;;;;5.45;4.38;;;;;;;;;;4777269;30;20059;-80
2022/02/04 15:45:17;;;;;;;6.63;3.40;;;;;;;;;;4767228;30;20051;-81
2022/02/04 15:48:11;;;;;;;4.95;4.55;;;;;;;;;;4783541;29;20551;-80
2022/02/04 15:58:53;;;;;;;8.98;4.70;;;;;;;;;;4780659;30;20059;-82
2022/02/04 16:01:47;;;;;;;10.57;4.63;;;;;;;;;;4780719;30;20047;-82
2022/02/04 16:06:41;;;;;;;6.10;3.60;;;;;;;;;;4783676;29;20059;-83
2022/02/04 16:09:09;;;;;;;5.63;4.25;;;;;;;;;;4783172;29;20055;-83
2022/02/04 16:11:52;;;;;;;3.78;2.92;;;;;;;;;;4784165;29;20519;-82
2022/02/04 16:14:29;;;;;;;2.92;2.72;;;;;;;;;;4783340;30;20066;-79
2022/02/04 16:17:26;;;;;;;3.28;2.85;;;;;;;;;;4783257;29;20687;-77
2022/02/04 16:20:06;;;;;;;5.00;3.67;;;;;;;;;;4782413;29;20055;-84
2022/02/04 16:23:09;;;;;;;6.20;5.18;;;;;;;;;;4772423;29;20411;-82
2022/02/04 16:25:58;;;;;;;6.28;4.22;;;;;;;;;;4783627;30;20114;-82
2022/02/04 16:28:40;;;;;;;3.63;2.72;;;;;;;;;;4773948;29;20055;-81
2022/02/04 16:31:13;;;;;;;2.72;2.42;;;;;;;;;;4782182;29;20504;-80
2022/02/04 16:33:42;;;;;;;5.22;3.42;;;;;;;;;;4797075;29;20051;-80
2022/02/04 16:36:16;;;;;;;6.32;3.53;;;;;;;;;;4796422;29;20051;-82
2022/02/04 16:38:52;;;;;;;4.10;3.78;;;;;;;;;;4795230;29;20530;-82
2022/02/04 16:41:43;;;;;;;6.45;5.22;;;;;;;;;;4783962;29;20047;-81
2022/02/04 16:44:13;;;;;;;4.35;4.00;;;;;;;;;;4781319;29;20055;-81
2022/02/04 16:46:41;;;;;;;5.10;4.55;;;;;;;;;;4783289;30;20052;-81
2022/02/04 16:49:09;;;;;;;4.63;4.13;;;;;;;;;;4782587;29;20869;-81
2022/02/04 16:51:38;;;;;;;4.72;3.95;;;;;;;;;;4782736;30;20055;-81
2022/02/04 16:54:08;;;;;;;5.07;4.43;;;;;;;;;;4782379;30;20411;-81
2022/02/04 16:56:41;;;;;;;6.82;3.63;;;;;;;;;;4772183;30;20047;-81
2022/02/04 16:59:09;;;;;;;8.63;5.20;;;;;;;;;;4782003;29;20393;-81
2022/02/04 17:01:37;;;;;;;3.40;3.13;;;;;;;;;;4782556;30;20488;-81
2022/02/04 17:04:06;;;;;;;5.32;4.63;;;;;;;;;;4781463;29;20066;-81
2022/02/04 17:06:38;;;;;;;5.60;4.70;;;;;;;;;;4782374;30;20106;-81
2022/02/04 17:11:46;;;;;;;5.72;4.43;;;;;;;;;;4780591;29;20086;-81
2022/02/04 17:14:14;;;;;;;5.45;3.60;;;;;;;;;;4781874;30;20051;-81
2022/02/04 17:16:43;;;;;;;5.15;4.65;;;;;;;;;;4782575;29;20768;-81
2022/02/04 17:19:22;;;;;;;6.90;6.20;;;;;;;;;;4781506;29;20504;-81
2022/02/04 17:21:50;;;;;;;6.63;4.97;;;;;;;;;;4782822;30;20066;-81
2022/02/04 17:24:21;;;;;;;4.95;3.40;;;;;;;;;;4743092;30;20518;-82
2022/02/04 17:26:49;;;;;;;5.60;5.03;;;;;;;;;;4766056;29;20081;-81
2022/02/04 17:29:17;;;;;;;6.90;4.25;;;;;;;;;;4782242;30;20498;-81
2022/02/04 17:31:45;;;;;;;5.57;4.05;;;;;;;;;;4780595;30;20094;-81
2022/02/04 17:34:16;;;;;;;7.10;5.30;;;;;;;;;;4777365;29;20052;-87
2022/02/04 17:36:44;;;;;;;5.77;4.83;;;;;;;;;;4765457;29;20427;-88
2022/02/04 17:39:22;;;;;;;5.15;4.60;;;;;;;;;;4752012;29;20051;-87
2022/02/04 17:41:54;;;;;;;5.47;4.65;;;;;;;;;;4781796;30;20070;-87
2022/02/04 17:44:27;;;;;;;4.93;4.38;;;;;;;;;;4764489;30;20380;-81
2022/02/04 17:46:55;;;;;;;3.63;2.92;;;;;;;;;;4781723;29;20054;-87
2022/02/04 17:55:02;;;;;;;4.57;4.03;;;;;;;;;;4765795;30;20066;-81
2022/02/04 17:57:45;;;;;;;4.47;3.85;;;;;;;;;;4759897;30;20070;-87
2022/02/04 18:06:00;;;;;;;3.65;3.33;;;;;;;;;;4783323;30;20372;-87
2022/02/04 18:08:28;;;;;;;3.30;3.00;;;;;;;;;;4782665;29;20051;-83
2022/02/04 18:11:00;;;;;;;6.80;4.13;;;;;;;;;;4763055;29;20062;-85
2022/02/04 18:13:28;;;;;;;7.07;4.30;;;;;;;;;;4760578;29;20063;-85
2022/02/04 18:15:57;;;;;;;6.68;6.18;;;;;;;;;;4768957;29;20043;-88
2022/02/04 18:18:27;;;;;;;4.05;3.35;;;;;;;;;;4763187;30;20059;-87
2022/02/04 18:20:55;;;;;;;5.03;3.45;;;;;;;;;;4784540;29;20058;-82
2022/02/04 18:23:23;;;;;;;3.13;2.92;;;;;;;;;;4789407;29;20052;-87
2022/02/04 18:25:52;;;;;;;2.55;2.20;;;;;;;;;;4778959;29;20066;-84
2022/02/04 18:28:22;;;;;;;7.07;3.95;;;;;;;;;;4749615;30;20048;-82
2022/02/04 18:30:53;;;;;;;4.57;3.85;;;;;;;;;;4748062;30;20215;-79
2022/02/04 18:33:24;;;;;;;5.07;3.50;;;;;;;;;;4775807;29;20059;-81
2022/02/04 18:36:03;;;;;;;3.65;3.35;;;;;;;;;;4779220;29;20059;-80
2022/02/04 18:38:49;;;;;;;6.57;5.25;;;;;;;;;;4776701;30;20055;-79
2022/02/04 18:44:05;;;;;;;5.45;3.95;;;;;;;;;;4777892;29;20075;-81
2022/02/04 18:52:41;;;;;;;7.65;6.80;;;;;;;;;;4783968;29;20047;-82
2022/02/04 18:54:54;;;;;;;5.32;3.78;;;;;;;;;;4775786;29;20436;-83
2022/02/04 18:57:33;;;;;;;6.13;5.35;;;;;;;;;;4778717;30;20053;-82
2022/02/04 19:00:16;;;;;;;8.93;5.18;;;;;;;;;;4768019;30;20051;-82
2022/02/04 19:02:53;;;;;;;6.70;5.07;;;;;;;;;;4769045;29;20062;-81
2022/02/04 19:05:32;;;;;;;7.85;5.78;;;;;;;;;;4781237;30;20051;-80
2022/02/04 19:08:19;;;;;;;5.72;4.63;;;;;;;;;;4781117;29;20052;-81
2022/02/04 19:10:50;;;;;;;3.88;3.53;;;;;;;;;;4782106;29;20066;-83
2022/02/04 19:13:24;;;;;;;5.35;4.90;;;;;;;;;;4784764;29;20066;-81
2022/02/04 19:16:17;;;;;;;5.45;4.95;;;;;;;;;;4770420;29;20051;-81
2022/02/04 19:21:45;;;;;;;4.03;3.53;;;;;;;;;;4784632;29;20063;-83
2022/02/04 19:24:21;;;;;;;5.70;4.50;;;;;;;;;;4788521;29;20067;-84
2022/02/04 19:26:53;;;;;;;3.67;3.47;;;;;;;;;;4784762;29;20058;-85
2022/02/04 19:29:23;;;;;;;2.63;2.42;;;;;;;;;;4783627;30;20058;-82
2022/02/04 19:31:55;;;;;;;2.90;2.70;;;;;;;;;;4783267;29;20055;-81
2022/02/04 19:34:25;;;;;;;2.53;2.33;;;;;;;;;;4783068;30;20067;-82
2022/02/04 19:36:56;;;;;;;2.10;1.98;;;;;;;;;;4779920;30;20085;-80
2022/02/04 19:39:24;;;;;;;2.92;2.72;;;;;;;;;;4781628;29;20055;-80
2022/02/04 19:42:04;;;;;;;2.67;2.47;;;;;;;;;;4781902;30;20063;-77
2022/02/04 19:44:34;;;;;;;1.92;1.83;;;;;;;;;;4784318;29;20059;-81
2022/02/04 19:47:08;;;;;;;2.35;2.15;;;;;;;;;;4782418;29;20047;-79
2022/02/04 19:49:50;;;;;;;1.63;1.50;;;;;;;;;;4782554;30;20059;-85
2022/02/04 19:52:31;;;;;;;2.13;2.03;;;;;;;;;;4782465;29;20067;-85
2022/02/04 20:25:13;;;;;;;1.73;1.63;;;;;;;;;;4784471;29;20059;-81
2022/02/04 20:27:42;;;;;;;1.35;1.25;;;;;;;;;;4786116;29;20071;-81
2022/02/04 20:30:12;;;;;;;1.88;1.77;;;;;;;;;;4784238;30;20059;-79
2022/02/04 20:32:40;;;;;;;1.73;1.63;;;;;;;;;;4783467;29;20059;-80
2022/02/04 20:35:09;;;;;;;1.65;1.55;;;;;;;;;;4782179;29;20055;-81
2022/02/04 20:37:37;;;;;;;2.88;1.20;;;;;;;;;;4783743;30;20555;-83
2022/02/04 20:40:39;;;;;;;1.42;1.35;;;;;;;;;;4781867;29;20139;-89
2022/02/04 20:43:07;;;;;;;1.55;1.20;;;;;;;;;;4773556;30;20062;-80
2022/02/04 20:45:35;;;;;;;1.00;1.00;;;;;;;;;;4783088;30;20066;-80
2022/02/04 20:48:03;;;;;;;1.20;1.20;;;;;;;;;;4782200;29;20591;-80
2022/02/04 20:50:31;;;;;;;1.55;1.50;;;;;;;;;;4766123;30;20062;-80
2022/02/04 20:53:00;;;;;;;1.40;1.40;;;;;;;;;;4776077;30;20055;-80
2022/02/04 20:55:29;;;;;;;0.80;0.80;;;;;;;;;;4781899;29;20059;-80
2022/02/04 20:57:59;;;;;;;0.80;0.80;;;;;;;;;;4764874;30;20062;-80
2022/02/04 21:00:30;;;;;;;1.00;1.00;;;;;;;;;;4779277;29;20047;-81
2022/02/04 21:02:59;;;;;;;1.10;1.10;;;;;;;;;;4780285;29;20055;-81
2022/02/04 21:06:16;;;;;;;1.20;1.20;;;;;;;;;;4781324;30;20305;-89
2022/02/04 21:09:35;;;;;;;1.30;1.20;;;;;;;;;;4764860;30;20047;-81
2022/02/04 21:15:03;;;;;;;1.02;0.95;;;;;;;;;;4782320;29;20056;-79
2022/02/04 21:17:34;;;;;;;1.10;1.08;;;;;;;;;;4737633;30;20067;-80
2022/02/04 21:20:03;;;;;;;1.02;1.02;;;;;;;;;;4780255;30;20059;-79
2022/02/04 21:22:32;;;;;;;2.05;1.02;;;;;;;;;;4781318;30;20066;-80
2022/02/04 21:25:01;;;;;;;2.13;2.03;;;;;;;;;;4749581;30;20055;-80
2022/02/04 21:27:32;;;;;;;1.23;1.23;;;;;;;;;;4776947;29;20047;-79
2022/02/04 21:30:01;;;;;;;1.50;1.20;;;;;;;;;;4775914;29;20482;-80
2022/02/04 21:32:30;;;;;;;1.00;1.00;;;;;;;;;;4785761;29;20054;-79
2022/02/04 21:37:45;;;;;;;1.27;1.17;;;;;;;;;;4776655;29;20043;-80
2022/02/04 21:40:14;;;;;;;1.35;1.23;;;;;;;;;;4778025;29;20066;-79
2022/02/04 21:42:43;;;;;;;1.88;1.77;;;;;;;;;;4780293;29;20051;-80
2022/02/04 21:45:15;;;;;;;1.67;1.50;;;;;;;;;;4779698;29;20777;-79
2022/02/04 21:47:51;;;;;;;1.55;1.45;;;;;;;;;;4779106;29;20062;-80
2022/02/04 21:50:23;;;;;;;1.65;1.58;;;;;;;;;;4764224;30;20063;-80
2022/02/04 21:52:54;;;;;;;1.50;1.27;;;;;;;;;;4763136;29;20047;-81
2022/02/04 21:55:23;;;;;;;1.42;1.40;;;;;;;;;;4779048;29;20059;-80
2022/02/04 21:57:52;;;;;;;2.20;1.50;;;;;;;;;;4763326;30;20452;-81
2022/02/04 22:00:23;;;;;;;1.20;1.20;;;;;;;;;;4776609;29;20479;-80
2022/02/04 22:02:55;;;;;;;1.42;1.33;;;;;;;;;;4779974;29;20047;-80
2022/02/04 22:05:26;;;;;;;2.88;2.63;;;;;;;;;;4779216;29;20074;-80
2022/02/04 22:08:00;;;;;;;1.73;1.63;;;;;;;;;;4777196;29;20047;-80
2022/02/04 22:23:43;;;;;;;2.13;1.92;;;;;;;;;;4776379;29;20055;-80
2022/02/04 22:26:16;;;;;;;2.13;1.52;;;;;;;;;;4779972;29;20403;-80
2022/02/04 22:28:45;;;;;;;2.45;2.25;;;;;;;;;;4777630;29;20054;-81
2022/02/04 22:31:20;;;;;;;2.47;1.67;;;;;;;;;;4778749;29;20051;-79
2022/02/04 22:33:58;;;;;;;2.30;1.67;;;;;;;;;;4778561;29;20074;-81
2022/02/04 22:37:07;;;;;;;2.00;1.90;;;;;;;;;;4777446;29;20508;-79
2022/02/04 22:42:22;;;;;;;2.17;2.08;;;;;;;;;;4778859;29;20048;-81
2022/02/04 22:45:05;;;;;;;3.28;2.40;;;;;;;;;;4778411;29;20047;-79